North Liberty, Indiana
Current Conditions -  °F | °C
As of 10:54 PM on Sunday 23 Nov 2014 (Local Time) from KSBN Reporting Station
Moderate Rain Moderate Rain  
Wind Chill: 50°   Ceiling: 500
Heat Index: 50°   Visibility: 4mi
Dew Point: 49°   Wind: 7mph
Humidity: 96%   Direction: 110°ESE
Pressure: 29.18"   Gusts: NA
Location:  41.53°N, 86.43°W
Report Text: KSBN 240354Z 11006KT 4SM RA BR OVC005 10/09 A2918 RMK AO2 CIG 003V008 PRESFR SLP880 P0012 T01000094
Loading
Personal Weather Stations






























Interactive Weather Map New forecast layout! Learn more

10-Day Weather Forecast

Advertisements
Track Severe Weather on mobile